KMLU/MLU METAR and TAF weather

Enter ICAO airport designator
Station Type Date Time Source
KMLU METAR 2020/01/23 08:53 UTC NOAA

KMLU 230853Z AUTO 12005KT 8SM -RA OVC009 07/06 A3003 RMK AO2 CIG 006V012 SLP167 P0003 60010 T00670056 56021


Station Type Date Time Source
KMLU Decoded METAR 2020/01/23 08:53 UTC NOAA

MONROE REGIONAL AIRPORT, LA, United States (KMLU) 32-31N 092-02W 29M
Jan 23, 2020 - 03:53 AM EST / 2020.01.23 0853 UTC
Wind: from the ESE (120 degrees) at 6 MPH (5 KT):0
Visibility: 8 mile(s):0
Sky conditions: overcast
Weather: light rain
Precipitation last hour: 0.03 inches
Temperature: 44.1 F (6.7 C)
Dew Point: 42.1 F (5.6 C)
Relative Humidity: 92%
Pressure (altimeter): 30.03 in. Hg (1016 hPa)
Pressure tendency: 0.06 inches (2.1 hPa) lower than three hours ago
ob: KMLU 230853Z AUTO 12005KT 8SM -RA OVC009 07/06 A3003 RMK AO2 CIG 006V012 SLP167 P0003 60010 T00670056 56021
cycle: 9

Station Type Date Time Source
KMLU TAF 2020/01/23 06:45 UTC NOAA

TAF KMLU 230543Z 2306/2406 09005KT 5SM RA BR FEW035 BKN045 OVC070
TEMPO 2306/2308 2SM -RA BR OVC004
FM230800 12011KT 2SM -RA BR OVC004
FM231800 15007KT 1 1/2SM BR OVC004
FM232100 33005KT 4SM BR OVC007
FM240300 32005KT P6SM OVC015

Example: see airport list